Time;durP1;ratioP1;P1;durP2;ratioP2;P2;SDS_P1;SDS_P2;PMS_P1;PMS_P2;Temp;Humidity;BMP_temperature;BMP_pressure;BME280_temperature;BME280_humidity;BME280_pressure;Samples;Min_cycle;Max_cycle;Signal;HPM_P1;HPM_P2
2021/12/21 00:00:55;;;;;;;13.05;8.55;;;-1.00;99.90;;;;;;5105273;28;20310;-68
2021/12/21 00:03:25;;;;;;;19.17;8.93;;;-1.10;99.90;;;;;;5104048;28;20187;-68
2021/12/21 00:05:54;;;;;;;12.18;7.57;;;-1.10;99.90;;;;;;5105799;28;20307;-67
2021/12/21 00:08:22;;;;;;;8.10;7.10;;;-1.10;99.90;;;;;;5103934;28;20611;-67
2021/12/21 00:11:10;;;;;;;11.90;9.52;;;-1.10;99.90;;;;;;5094718;28;20210;-66
2021/12/21 00:13:56;;;;;;;9.80;8.10;;;-1.10;99.90;;;;;;5099099;28;20218;-66
2021/12/21 00:16:47;;;;;;;13.38;7.47;;;-1.20;99.90;;;;;;5099344;28;20220;-65
2021/12/21 00:22:07;;;;;;;13.63;7.97;;;-1.20;99.90;;;;;;5091402;28;20202;-66
2021/12/21 00:24:45;;;;;;;14.23;8.93;;;-1.20;99.90;;;;;;5099481;28;20202;-66
2021/12/21 00:27:14;;;;;;;15.43;8.50;;;-1.20;99.90;;;;;;5098620;27;20230;-66
2021/12/21 00:29:42;;;;;;;13.48;8.75;;;-1.20;99.90;;;;;;5099190;28;20211;-68
2021/12/21 00:32:10;;;;;;;10.30;8.10;;;-1.20;99.90;;;;;;5098836;28;20203;-67
2021/12/21 00:34:40;;;;;;;10.18;7.78;;;-1.20;99.90;;;;;;5098725;28;20200;-65
2021/12/21 00:37:08;;;;;;;11.70;8.15;;;-1.20;99.90;;;;;;5098717;28;20192;-68
2021/12/21 00:39:36;;;;;;;10.77;8.05;;;-1.20;99.90;;;;;;5098825;28;20203;-65
2021/12/21 00:42:04;;;;;;;9.52;7.55;;;-1.20;99.90;;;;;;5098580;28;20482;-66
2021/12/21 00:44:32;;;;;;;12.13;7.90;;;-1.20;99.90;;;;;;5097925;28;20701;-66
2021/12/21 00:47:00;;;;;;;10.02;8.00;;;-1.20;99.90;;;;;;5098714;28;20250;-67
2021/12/21 00:49:29;;;;;;;12.70;9.00;;;-1.20;99.90;;;;;;5098786;28;20199;-67
2021/12/21 00:51:58;;;;;;;12.50;8.10;;;-1.30;99.90;;;;;;5098600;28;20200;-66
2021/12/21 00:54:27;;;;;;;13.73;8.15;;;-1.20;99.90;;;;;;5098263;28;20206;-66
2021/12/21 00:56:55;;;;;;;12.80;7.72;;;-1.20;99.90;;;;;;5098450;28;20211;-68
2021/12/21 00:59:22;;;;;;;11.02;8.13;;;-1.30;99.90;;;;;;5098665;28;20199;-65
2021/12/21 01:01:50;;;;;;;12.82;8.55;;;-1.30;99.90;;;;;;5098818;28;20234;-65
2021/12/21 01:04:23;;;;;;;13.15;7.75;;;-1.30;99.90;;;;;;5097895;28;20199;-66
2021/12/21 01:07:02;;;;;;;16.02;7.55;;;-1.40;99.90;;;;;;5098139;28;20230;-66
2021/12/21 01:12:32;;;;;;;14.43;7.72;;;-1.40;99.90;;;;;;5098358;28;20256;-67
2021/12/21 01:15:11;;;;;;;16.70;8.80;;;-1.50;99.90;;;;;;5098451;28;20228;-65
2021/12/21 01:17:50;;;;;;;14.30;8.52;;;-1.40;99.90;;;;;;5098548;28;20179;-68
2021/12/21 01:20:29;;;;;;;9.82;7.70;;;-1.40;99.90;;;;;;5098207;28;20234;-67
2021/12/21 01:23:20;;;;;;;19.95;8.50;;;-1.50;99.90;;;;;;5099017;28;20711;-67
2021/12/21 01:25:56;;;;;;;15.70;8.43;;;-1.50;99.90;;;;;;5098618;28;20219;-67
2021/12/21 01:28:33;;;;;;;14.82;8.70;;;-1.50;99.90;;;;;;5098607;28;20226;-67
2021/12/21 01:31:14;;;;;;;13.55;8.20;;;-1.50;99.90;;;;;;5099192;28;20556;-66
2021/12/21 01:33:53;;;;;;;10.70;8.18;;;-1.40;99.90;;;;;;5098696;28;20283;-66
2021/12/21 01:36:27;;;;;;;11.38;8.23;;;-1.40;99.90;;;;;;5099546;28;20775;-66
2021/12/21 01:39:01;;;;;;;14.18;8.95;;;-1.40;99.90;;;;;;5100340;28;20188;-67
2021/12/21 01:41:38;;;;;;;11.07;8.02;;;-1.40;99.90;;;;;;5099776;28;20786;-67
2021/12/21 01:44:19;;;;;;;12.27;8.27;;;-1.50;99.90;;;;;;5099045;28;20199;-66
2021/12/21 01:49:37;;;;;;;15.90;8.95;;;-1.50;99.90;;;;;;5099451;28;20222;-65
2021/12/21 01:52:07;;;;;;;13.93;9.43;;;-1.50;99.90;;;;;;5099010;28;20206;-67
2021/12/21 01:54:35;;;;;;;11.90;8.98;;;-1.50;99.90;;;;;;5098843;28;20203;-65
2021/12/21 01:57:06;;;;;;;10.45;8.20;;;-1.60;99.90;;;;;;5098798;28;20207;-68
2021/12/21 01:59:35;;;;;;;12.57;8.80;;;-1.50;99.90;;;;;;5098381;28;20439;-67
2021/12/21 02:02:05;;;;;;;12.30;8.00;;;-1.50;99.90;;;;;;5098455;28;20200;-65
2021/12/21 02:04:33;;;;;;;10.70;9.10;;;-1.50;99.90;;;;;;5098064;28;20613;-65
2021/12/21 02:07:01;;;;;;;8.77;7.88;;;-1.50;99.90;;;;;;5098444;28;20220;-67
2021/12/21 02:09:37;;;;;;;10.25;8.63;;;-1.60;99.90;;;;;;5101800;28;20570;-65
2021/12/21 02:12:09;;;;;;;10.43;8.65;;;-1.50;99.90;;;;;;5101763;28;20210;-64
2021/12/21 02:14:36;;;;;;;12.32;8.48;;;-1.60;99.90;;;;;;5102014;28;20199;-65
2021/12/21 02:17:24;;;;;;;11.18;8.00;;;-1.60;99.90;;;;;;5110846;28;20201;-66
2021/12/21 02:20:10;;;;;;;14.55;8.80;;;-1.60;99.90;;;;;;5109972;28;20206;-67
2021/12/21 02:22:44;;;;;;;11.65;7.95;;;-1.50;99.90;;;;;;5101836;28;20572;-67
2021/12/21 02:25:34;;;;;;;12.77;8.88;;;-1.60;99.90;;;;;;5101728;28;20220;-66
2021/12/21 02:28:22;;;;;;;16.48;9.40;;;-1.50;99.90;;;;;;5101196;28;20671;-66
2021/12/21 02:34:36;;;;;;;9.93;7.70;;;-1.50;99.90;;;;;;5105859;28;20203;-65
2021/12/21 02:37:06;;;;;;;9.00;8.10;;;-1.50;99.90;;;;;;5100866;28;20203;-66
2021/12/21 02:39:34;;;;;;;15.55;9.48;;;-1.50;99.90;;;;;;5101009;28;20200;-66
2021/12/21 02:42:01;;;;;;;12.93;9.27;;;-1.50;99.90;;;;;;5101141;28;20647;-66
2021/12/21 02:44:29;;;;;;;11.43;8.00;;;-1.50;99.90;;;;;;5100311;28;20260;-67
2021/12/21 02:46:57;;;;;;;11.35;8.27;;;-1.60;99.90;;;;;;5100706;28;20196;-65
2021/12/21 02:49:25;;;;;;;15.93;8.85;;;-1.50;99.90;;;;;;5100115;28;20378;-64
2021/12/21 02:51:53;;;;;;;14.48;8.77;;;-1.60;99.90;;;;;;5100677;28;20203;-67
2021/12/21 02:54:22;;;;;;;12.52;9.15;;;-1.60;99.90;;;;;;5100193;28;20200;-67
2021/12/21 02:56:50;;;;;;;17.92;9.43;;;-1.60;99.90;;;;;;5100262;28;20210;-66
2021/12/21 02:59:17;;;;;;;11.98;8.88;;;-1.60;99.90;;;;;;5100351;28;20280;-65
2021/12/21 03:01:45;;;;;;;15.32;9.45;;;-1.60;99.90;;;;;;5100215;28;20456;-66
2021/12/21 03:04:13;;;;;;;13.20;8.93;;;-1.60;99.90;;;;;;5100343;28;20479;-66
2021/12/21 03:07:31;;;;;;;11.48;8.45;;;-1.60;99.90;;;;;;5100301;28;20215;-65
2021/12/21 03:10:02;;;;;;;11.38;8.23;;;-1.70;99.90;;;;;;5100269;28;20191;-67
2021/12/21 03:13:52;;;;;;;12.98;8.20;;;-1.60;99.90;;;;;;5100365;28;20211;-66
2021/12/21 03:15:22;;;;;;;11.93;7.97;;;-1.60;99.90;;;;;;5099935;28;20224;-65
2021/12/21 03:17:50;;;;;;;15.57;7.97;;;-1.60;99.90;;;;;;5099898;28;20196;-66
2021/12/21 03:20:18;;;;;;;17.08;9.35;;;-1.60;99.90;;;;;;5100466;28;20295;-68
2021/12/21 03:22:47;;;;;;;10.70;7.55;;;-1.60;99.90;;;;;;5099723;28;20486;-66
2021/12/21 03:25:16;;;;;;;13.45;8.45;;;-1.60;99.90;;;;;;5100215;28;20207;-67
2021/12/21 03:27:44;;;;;;;13.10;8.98;;;-1.60;99.90;;;;;;5100274;28;20229;-66
2021/12/21 03:30:14;;;;;;;15.43;9.35;;;-1.60;99.90;;;;;;5100035;28;20222;-67
2021/12/21 03:32:43;;;;;;;12.82;8.73;;;-1.70;99.90;;;;;;5100314;28;20445;-67
2021/12/21 03:35:11;;;;;;;10.18;7.72;;;-1.60;99.90;;;;;;5099568;28;20241;-65
2021/12/21 03:37:39;;;;;;;14.70;8.93;;;-1.70;99.90;;;;;;5099792;28;20443;-67
2021/12/21 03:40:08;;;;;;;13.50;8.88;;;-1.70;99.90;;;;;;5099807;28;20760;-67
2021/12/21 03:42:37;;;;;;;15.13;8.82;;;-1.80;99.90;;;;;;5099592;28;20290;-66
2021/12/21 03:45:07;;;;;;;16.88;9.05;;;-1.80;99.90;;;;;;5098953;28;20234;-68
2021/12/21 03:47:35;;;;;;;10.23;8.20;;;-1.80;99.90;;;;;;5099254;28;20658;-66
2021/12/21 03:50:11;;;;;;;10.55;8.43;;;-1.80;99.90;;;;;;5099493;28;20667;-65
2021/12/21 03:52:38;;;;;;;9.13;8.15;;;-1.80;99.90;;;;;;5099144;28;20203;-66
2021/12/21 03:55:07;;;;;;;11.35;8.93;;;-1.80;99.90;;;;;;5099409;28;20223;-67
2021/12/21 03:57:35;;;;;;;12.68;8.75;;;-1.80;99.90;;;;;;5099347;28;20214;-65
2021/12/21 04:00:05;;;;;;;10.23;8.18;;;-1.80;99.90;;;;;;5099307;28;20612;-66
2021/12/21 04:02:33;;;;;;;14.13;8.45;;;-1.80;99.90;;;;;;5099560;28;20670;-65
2021/12/21 04:05:01;;;;;;;9.75;8.02;;;-1.80;99.90;;;;;;5099252;28;20280;-65
2021/12/21 04:07:29;;;;;;;12.95;8.95;;;-1.80;99.90;;;;;;5099029;28;20199;-65
2021/12/21 04:09:56;;;;;;;16.00;9.57;;;-1.80;99.90;;;;;;5098968;28;20331;-66
2021/12/21 04:12:24;;;;;;;10.50;9.32;;;-1.80;99.90;;;;;;5098946;28;20208;-68
2021/12/21 04:14:52;;;;;;;12.98;9.18;;;-1.80;99.90;;;;;;5098469;28;20227;-65
2021/12/21 04:17:23;;;;;;;12.80;8.48;;;-1.80;99.90;;;;;;5100561;28;20196;-66
2021/12/21 04:19:52;;;;;;;17.25;9.30;;;-1.80;99.90;;;;;;5100434;28;20876;-67
2021/12/21 04:22:20;;;;;;;9.65;8.32;;;-1.80;99.90;;;;;;5100291;28;20298;-67
2021/12/21 04:24:49;;;;;;;17.05;9.98;;;-1.90;99.90;;;;;;5099694;28;20216;-67
2021/12/21 04:27:17;;;;;;;10.15;7.90;;;-1.90;99.90;;;;;;5099794;28;20358;-66
2021/12/21 04:29:46;;;;;;;12.13;9.52;;;-1.90;99.90;;;;;;5099911;28;20223;-66
2021/12/21 04:32:13;;;;;;;10.45;9.20;;;-1.90;99.90;;;;;;5099703;28;20222;-68
2021/12/21 04:34:43;;;;;;;9.05;7.95;;;-1.90;99.90;;;;;;5099654;28;20210;-67
2021/12/21 04:37:12;;;;;;;13.07;8.60;;;-1.90;99.90;;;;;;5099050;28;20199;-67
2021/12/21 04:39:45;;;;;;;15.02;10.05;;;-1.90;99.90;;;;;;5099202;28;20198;-67
2021/12/21 04:42:13;;;;;;;9.75;8.10;;;-1.90;99.90;;;;;;5099304;28;20199;-67
2021/12/21 04:44:40;;;;;;;11.13;8.43;;;-2.00;99.90;;;;;;5099399;28;20204;-67
2021/12/21 04:47:08;;;;;;;12.80;8.63;;;-2.00;99.90;;;;;;5099181;28;20196;-66
2021/12/21 04:49:36;;;;;;;17.67;9.50;;;-1.90;99.90;;;;;;5099653;28;20464;-67
2021/12/21 04:52:06;;;;;;;12.52;9.20;;;-1.90;99.90;;;;;;5098947;28;20203;-67
2021/12/21 04:54:34;;;;;;;14.25;8.80;;;-2.00;99.90;;;;;;5099104;28;20204;-66
2021/12/21 04:57:02;;;;;;;11.70;9.55;;;-1.90;99.90;;;;;;5099560;28;20566;-65
2021/12/21 04:59:29;;;;;;;11.45;9.23;;;-2.00;99.90;;;;;;5099117;28;20203;-65
2021/12/21 05:01:57;;;;;;;13.55;10.02;;;-2.00;99.90;;;;;;5099123;28;20203;-65
2021/12/21 05:04:25;;;;;;;12.45;8.18;;;-2.00;99.90;;;;;;5098714;28;20202;-65
2021/12/21 05:06:53;;;;;;;13.52;9.65;;;-2.00;99.90;;;;;;5098433;28;20662;-66
2021/12/21 05:09:26;;;;;;;12.10;9.80;;;-2.10;99.90;;;;;;5098655;28;20258;-65
2021/12/21 05:12:00;;;;;;;9.57;7.85;;;-2.00;99.90;;;;;;5098609;28;20215;-66
2021/12/21 05:14:29;;;;;;;12.70;9.90;;;-2.00;99.90;;;;;;5097651;28;20653;-65
2021/12/21 05:16:56;;;;;;;13.45;9.35;;;-2.10;99.90;;;;;;5098575;28;20761;-65
2021/12/21 05:19:24;;;;;;;12.35;9.63;;;-2.10;99.90;;;;;;5098640;28;20200;-66
2021/12/21 05:21:52;;;;;;;17.63;10.05;;;-2.10;99.90;;;;;;5098492;28;20200;-65
2021/12/21 05:24:21;;;;;;;11.15;9.15;;;-2.10;99.90;;;;;;5098161;28;20243;-65
2021/12/21 05:26:49;;;;;;;10.73;8.45;;;-2.10;99.90;;;;;;5098111;28;20318;-65
2021/12/21 05:29:17;;;;;;;10.35;8.38;;;-2.10;99.90;;;;;;5098335;28;20211;-65
2021/12/21 05:31:45;;;;;;;14.73;8.52;;;-2.10;99.90;;;;;;5108967;28;20202;-66
2021/12/21 05:34:13;;;;;;;13.27;8.73;;;-2.10;99.90;;;;;;5101501;28;20196;-67
2021/12/21 05:36:41;;;;;;;16.00;9.70;;;-2.10;99.90;;;;;;5101402;28;20219;-65
2021/12/21 05:39:16;;;;;;;12.40;10.25;;;-2.10;99.90;;;;;;5100137;28;20214;-63
2021/12/21 05:41:51;;;;;;;15.77;8.68;;;-2.10;99.90;;;;;;5099156;28;20188;-62
2021/12/21 05:44:20;;;;;;;14.77;9.60;;;-2.10;99.90;;;;;;5102877;28;20226;-62
2021/12/21 05:46:48;;;;;;;13.57;9.68;;;-2.10;99.90;;;;;;5103188;28;20223;-63
2021/12/21 05:49:16;;;;;;;13.93;9.68;;;-2.10;99.90;;;;;;5117268;28;20216;-62
2021/12/21 05:51:44;;;;;;;14.38;9.50;;;-2.10;99.90;;;;;;5108224;28;20223;-63
2021/12/21 05:54:12;;;;;;;11.77;9.15;;;-2.10;99.90;;;;;;5101718;28;20203;-63
2021/12/21 05:56:41;;;;;;;10.60;8.80;;;-2.10;99.90;;;;;;5088531;28;20502;-64
2021/12/21 05:59:10;;;;;;;13.65;9.23;;;-2.10;99.90;;;;;;5081535;28;20573;-63
2021/12/21 06:01:38;;;;;;;12.13;9.98;;;-2.10;99.90;;;;;;5090718;28;20216;-63
2021/12/21 06:04:07;;;;;;;12.52;8.50;;;-2.10;99.90;;;;;;5081450;28;20287;-64
2021/12/21 06:06:35;;;;;;;14.00;9.15;;;-2.10;99.90;;;;;;5094653;28;20220;-63
2021/12/21 06:09:07;;;;;;;18.83;10.13;;;-2.10;99.90;;;;;;5102071;27;20216;-61
2021/12/21 06:11:40;;;;;;;15.95;10.73;;;-2.10;99.90;;;;;;5103010;28;20607;-61
2021/12/21 06:25:25;;;;;;;13.43;10.15;;;-2.10;99.90;;;;;;5099377;28;20725;-61
2021/12/21 06:27:55;;;;;;;18.63;10.38;;;-2.10;99.90;;;;;;5091991;28;20273;-62
2021/12/21 06:30:24;;;;;;;16.40;11.95;;;-2.10;99.90;;;;;;5085432;28;20220;-62
2021/12/21 06:32:52;;;;;;;14.27;10.32;;;-2.10;99.90;;;;;;5081290;28;20598;-62
2021/12/21 06:35:21;;;;;;;18.25;11.52;;;-2.10;99.90;;;;;;5081632;28;20220;-62
2021/12/21 06:37:49;;;;;;;22.08;11.20;;;-2.10;99.90;;;;;;5080641;28;20208;-62
2021/12/21 06:40:18;;;;;;;17.98;12.13;;;-2.10;99.90;;;;;;5089058;28;20449;-63
2021/12/21 06:42:49;;;;;;;14.48;9.63;;;-2.10;99.90;;;;;;5080734;28;20204;-63
2021/12/21 06:45:28;;;;;;;18.40;11.00;;;-2.00;99.90;;;;;;5081729;28;20224;-63
2021/12/21 06:53:30;;;;;;;14.00;10.80;;;-2.00;99.90;;;;;;5080801;28;20767;-64
2021/12/21 06:55:58;;;;;;;11.35;9.50;;;-1.90;99.90;;;;;;5082151;28;20259;-64
2021/12/21 06:58:26;;;;;;;14.45;10.15;;;-1.90;99.90;;;;;;5082062;28;20207;-61
2021/12/21 07:00:55;;;;;;;13.98;10.05;;;-1.80;99.90;;;;;;5083786;28;20227;-62
2021/12/21 07:03:25;;;;;;;18.85;11.45;;;-1.80;99.90;;;;;;5082488;28;20204;-64
2021/12/21 07:05:53;;;;;;;14.27;9.30;;;-1.80;99.90;;;;;;5081514;28;20225;-62
2021/12/21 07:08:25;;;;;;;12.25;8.90;;;-1.80;99.90;;;;;;5083069;28;20202;-64
2021/12/21 07:11:01;;;;;;;14.23;9.82;;;-1.80;99.90;;;;;;5084875;28;20232;-62
2021/12/21 07:19:03;;;;;;;13.55;8.85;;;-1.80;99.90;;;;;;5081301;28;20196;-61
2021/12/21 07:21:31;;;;;;;10.05;8.10;;;-1.80;99.90;;;;;;5080946;28;20733;-62
2021/12/21 07:23:59;;;;;;;10.82;9.73;;;-1.90;99.90;;;;;;5080978;28;20201;-62
2021/12/21 07:26:27;;;;;;;10.70;8.40;;;-2.00;99.90;;;;;;5080666;28;20227;-63
2021/12/21 07:28:54;;;;;;;12.88;9.45;;;-2.00;99.90;;;;;;5081132;28;20204;-63
2021/12/21 07:31:22;;;;;;;12.50;9.50;;;-2.10;99.90;;;;;;5080636;28;20220;-60
2021/12/21 07:33:50;;;;;;;11.55;8.70;;;-2.10;99.90;;;;;;5080946;28;20608;-60
2021/12/21 07:36:19;;;;;;;15.20;9.38;;;-2.10;99.90;;;;;;5080685;28;20217;-60
2021/12/21 07:38:47;;;;;;;18.50;10.15;;;-2.10;99.90;;;;;;5080262;28;20207;-61
2021/12/21 07:41:15;;;;;;;12.27;10.00;;;-2.20;99.90;;;;;;5093093;28;20306;-62
2021/12/21 07:43:43;;;;;;;16.23;10.10;;;-2.10;99.90;;;;;;5101378;28;20253;-62
2021/12/21 07:46:11;;;;;;;17.65;11.38;;;-2.10;99.90;;;;;;5102418;28;20335;-63
2021/12/21 07:48:40;;;;;;;10.73;9.73;;;-2.10;99.90;;;;;;5101222;28;20690;-62
2021/12/21 07:51:09;;;;;;;12.02;9.82;;;-2.10;99.90;;;;;;5102880;28;20628;-62
2021/12/21 07:53:38;;;;;;;13.55;10.20;;;-2.10;99.90;;;;;;5105863;28;20291;-62
2021/12/21 07:56:06;;;;;;;11.70;10.40;;;-2.10;99.90;;;;;;5101045;28;20242;-60
2021/12/21 07:58:36;;;;;;;19.30;11.70;;;-2.10;99.90;;;;;;5101501;28;20203;-62
2021/12/21 08:01:07;;;;;;;15.73;11.50;;;-2.10;99.90;;;;;;5101746;28;20242;-60
2021/12/21 08:03:36;;;;;;;17.08;11.88;;;-2.00;99.90;;;;;;5100266;28;20264;-62
2021/12/21 08:06:06;;;;;;;14.18;12.05;;;-2.00;99.90;;;;;;5100614;28;20219;-63
2021/12/21 08:08:39;;;;;;;15.82;10.60;;;-1.90;99.90;;;;;;5102064;28;20200;-62
2021/12/21 08:11:13;;;;;;;15.10;10.55;;;-1.90;99.90;;;;;;5103366;28;20203;-62
2021/12/21 08:13:43;;;;;;;15.85;10.93;;;-1.90;99.90;;;;;;5101242;28;20203;-62
2021/12/21 08:16:12;;;;;;;14.07;11.02;;;-1.90;99.90;;;;;;5107438;28;20234;-61
2021/12/21 08:18:40;;;;;;;17.23;11.73;;;-1.90;99.90;;;;;;5111927;28;20683;-60
2021/12/21 08:21:09;;;;;;;14.30;10.30;;;-1.90;99.90;;;;;;5093671;28;20197;-62
2021/12/21 08:23:36;;;;;;;20.02;12.52;;;-1.80;99.90;;;;;;5097165;28;20224;-60
2021/12/21 08:26:06;;;;;;;16.05;11.15;;;-1.90;99.90;;;;;;5098967;28;20216;-61
2021/12/21 08:28:35;;;;;;;19.70;12.15;;;-1.80;99.90;;;;;;5098115;28;20378;-61
2021/12/21 08:31:03;;;;;;;15.25;13.65;;;-1.70;99.90;;;;;;5098167;28;20487;-61
2021/12/21 08:33:31;;;;;;;17.23;13.38;;;-1.60;99.90;;;;;;5092134;28;20594;-61
2021/12/21 08:35:59;;;;;;;14.38;11.75;;;-1.50;99.90;;;;;;5099165;28;20268;-63
2021/12/21 08:38:26;;;;;;;16.90;12.10;;;-1.50;99.90;;;;;;5098234;28;20384;-61
2021/12/21 08:40:57;;;;;;;19.65;12.50;;;-1.50;99.90;;;;;;5098565;28;20689;-63
2021/12/21 08:43:28;;;;;;;18.52;13.55;;;-1.50;99.90;;;;;;5089969;28;20188;-61
2021/12/21 08:45:57;;;;;;;17.48;13.63;;;-1.50;99.90;;;;;;5098244;28;20216;-62
2021/12/21 08:48:26;;;;;;;21.98;13.15;;;-1.40;99.90;;;;;;5097756;28;20192;-60
2021/12/21 08:50:57;;;;;;;20.98;13.00;;;-1.40;99.90;;;;;;5100918;28;20780;-61
2021/12/21 08:53:25;;;;;;;16.73;13.10;;;-1.40;99.90;;;;;;5098745;28;20194;-63
2021/12/21 08:55:55;;;;;;;18.73;13.43;;;-1.30;99.90;;;;;;5098853;28;20215;-63
2021/12/21 08:58:23;;;;;;;19.08;12.52;;;-1.30;99.90;;;;;;5087356;28;20280;-61
2021/12/21 09:00:53;;;;;;;17.60;12.00;;;-1.20;99.90;;;;;;5087462;28;20215;-63
2021/12/21 09:03:23;;;;;;;18.70;12.20;;;-1.10;99.90;;;;;;5088469;28;20229;-60
2021/12/21 09:05:52;;;;;;;16.25;12.43;;;-1.00;99.90;;;;;;5095106;28;20223;-61
2021/12/21 09:08:20;;;;;;;24.38;14.45;;;-1.00;99.90;;;;;;5097353;28;20650;-62
2021/12/21 09:10:48;;;;;;;18.80;13.20;;;-0.90;99.90;;;;;;5097564;28;20609;-62
2021/12/21 09:13:17;;;;;;;15.45;12.35;;;-0.70;99.90;;;;;;5096953;28;20600;-62
2021/12/21 09:15:45;;;;;;;16.88;12.00;;;-0.60;99.90;;;;;;5096927;28;20216;-62
2021/12/21 09:18:13;;;;;;;16.98;12.02;;;-0.50;99.90;;;;;;5098858;28;20735;-61
2021/12/21 09:20:42;;;;;;;16.50;12.82;;;-0.40;99.90;;;;;;5099294;28;20187;-61
2021/12/21 09:23:11;;;;;;;14.85;10.68;;;-0.30;99.90;;;;;;5093809;28;20211;-62
2021/12/21 09:25:40;;;;;;;13.45;11.75;;;-0.20;99.90;;;;;;5101047;28;20211;-62
2021/12/21 09:28:08;;;;;;;16.20;12.43;;;-0.10;99.90;;;;;;5101767;28;20253;-62
2021/12/21 09:30:37;;;;;;;14.38;11.77;;;-0.10;99.90;;;;;;5100842;28;20222;-61
2021/12/21 09:33:08;;;;;;;14.27;10.95;;;0.00;99.90;;;;;;5099412;27;20210;-62
2021/12/21 09:35:36;;;;;;;15.98;10.90;;;0.00;99.90;;;;;;5101462;28;20219;-62
2021/12/21 09:38:05;;;;;;;13.85;12.05;;;0.10;99.90;;;;;;5100891;27;20207;-61
2021/12/21 09:40:39;;;;;;;21.13;11.82;;;0.20;99.90;;;;;;5101240;28;20200;-61
2021/12/21 09:43:08;;;;;;;17.17;12.13;;;0.20;99.90;;;;;;5101410;28;20495;-62
2021/12/21 09:45:40;;;;;;;15.73;11.85;;;0.20;99.90;;;;;;5104944;28;20265;-62
2021/12/21 09:48:08;;;;;;;17.90;11.20;;;0.30;99.90;;;;;;5105881;28;20437;-61
2021/12/21 09:50:37;;;;;;;14.70;10.70;;;0.30;99.90;;;;;;5105315;28;20830;-62
2021/12/21 09:53:06;;;;;;;14.32;10.75;;;0.30;99.90;;;;;;5104164;28;20188;-62
2021/12/21 09:55:34;;;;;;;13.80;10.90;;;0.30;99.90;;;;;;5103152;28;20211;-62
2021/12/21 09:58:02;;;;;;;21.05;12.43;;;0.40;99.90;;;;;;5102601;27;20295;-63
2021/12/21 10:00:34;;;;;;;15.77;11.13;;;0.40;99.90;;;;;;5100025;28;20199;-62
2021/12/21 10:03:04;;;;;;;16.85;10.10;;;0.50;99.90;;;;;;5102688;28;20219;-62
2021/12/21 10:05:35;;;;;;;12.13;9.80;;;0.50;99.90;;;;;;5102744;28;20234;-62
2021/12/21 10:08:10;;;;;;;16.08;11.32;;;0.50;99.90;;;;;;5103713;28;20200;-61
2021/12/21 10:10:40;;;;;;;14.55;10.77;;;0.50;99.90;;;;;;5102793;27;20203;-62
2021/12/21 10:13:10;;;;;;;13.50;10.35;;;0.50;99.90;;;;;;5103310;28;20864;-62
2021/12/21 10:15:41;;;;;;;11.73;10.45;;;0.50;99.90;;;;;;5102669;28;20319;-62
2021/12/21 10:18:09;;;;;;;14.70;10.90;;;0.50;99.90;;;;;;5099435;28;20450;-62
2021/12/21 10:20:39;;;;;;;17.00;10.20;;;0.50;99.90;;;;;;5101728;28;20283;-61
2021/12/21 10:23:19;;;;;;;13.88;9.90;;;0.40;99.90;;;;;;5101815;27;20218;-63
2021/12/21 10:25:50;;;;;;;14.77;10.13;;;0.40;99.90;;;;;;5103677;28;20903;-63
2021/12/21 10:28:30;;;;;;;11.70;10.35;;;0.40;99.90;;;;;;5102098;28;20294;-61
2021/12/21 10:31:00;;;;;;;14.68;10.60;;;0.40;99.90;;;;;;5103699;28;20230;-61
2021/12/21 10:33:28;;;;;;;17.77;10.82;;;0.40;99.90;;;;;;5102293;28;20294;-63
2021/12/21 10:35:57;;;;;;;15.25;11.25;;;0.40;99.90;;;;;;5101710;27;20224;-62
2021/12/21 10:38:29;;;;;;;19.90;11.43;;;0.40;99.90;;;;;;5102519;28;20379;-60
2021/12/21 10:41:00;;;;;;;13.00;10.10;;;0.40;99.90;;;;;;5101995;28;20207;-61
2021/12/21 10:43:29;;;;;;;16.08;10.98;;;0.40;99.90;;;;;;5102588;28;20206;-65
2021/12/21 10:45:57;;;;;;;25.20;10.75;;;0.40;99.90;;;;;;5091977;28;20231;-70
2021/12/21 10:48:26;;;;;;;13.73;9.45;;;0.50;99.90;;;;;;5084789;28;20211;-69
2021/12/21 10:50:54;;;;;;;17.63;10.90;;;0.50;99.90;;;;;;5086407;28;20469;-71
2021/12/21 10:53:24;;;;;;;20.88;11.38;;;0.50;99.90;;;;;;5112259;27;20462;-72
2021/12/21 10:56:01;;;;;;;15.57;11.05;;;0.50;99.90;;;;;;5120195;28;20287;-70
2021/12/21 10:58:30;;;;;;;13.82;9.30;;;0.60;99.90;;;;;;5121007;28;20299;-69
2021/12/21 11:01:01;;;;;;;12.23;9.93;;;0.60;99.90;;;;;;5111608;28;20393;-63
2021/12/21 11:03:33;;;;;;;11.75;10.50;;;0.60;99.90;;;;;;5108611;28;20193;-69
2021/12/21 11:06:14;;;;;;;16.25;9.40;;;0.70;99.90;;;;;;5123390;28;20590;-69
2021/12/21 11:08:46;;;;;;;12.85;9.80;;;0.80;99.90;;;;;;5106007;28;20199;-69
2021/12/21 11:11:29;;;;;;;14.70;9.48;;;0.90;99.90;;;;;;5104951;28;20227;-71
2021/12/21 11:14:07;;;;;;;12.88;10.05;;;0.90;99.90;;;;;;5102209;28;20674;-71
2021/12/21 11:16:40;;;;;;;16.60;10.80;;;0.90;99.90;;;;;;5106362;28;20744;-69
2021/12/21 11:19:15;;;;;;;12.88;9.52;;;0.90;99.90;;;;;;5104665;28;20196;-71
2021/12/21 11:21:45;;;;;;;13.00;10.10;;;1.00;99.90;;;;;;5103335;28;20317;-73
2021/12/21 11:24:15;;;;;;;15.10;9.88;;;1.00;99.90;;;;;;5104023;28;20180;-72
2021/12/21 11:26:47;;;;;;;15.23;10.52;;;1.00;99.90;;;;;;5102587;28;20750;-73
2021/12/21 11:29:17;;;;;;;14.73;11.23;;;1.10;99.90;;;;;;5104002;28;20682;-71
2021/12/21 11:31:47;;;;;;;14.63;12.30;;;1.10;99.90;;;;;;5107276;28;20197;-70
2021/12/21 11:34:20;;;;;;;17.42;12.38;;;1.20;99.90;;;;;;5095035;28;20202;-75
2021/12/21 11:39:41;;;;;;;19.65;11.52;;;1.30;99.90;;;;;;5097603;28;20188;-70
2021/12/21 11:42:24;;;;;;;21.00;11.43;;;1.30;99.90;;;;;;5102122;28;20198;-70
2021/12/21 11:44:55;;;;;;;24.23;12.00;;;1.30;99.90;;;;;;5102262;28;20743;-73
2021/12/21 11:47:35;;;;;;;19.77;11.90;;;1.40;99.90;;;;;;5091369;28;20218;-71
2021/12/21 11:50:06;;;;;;;17.50;11.10;;;1.50;99.90;;;;;;5082522;28;20219;-72
2021/12/21 11:52:44;;;;;;;18.45;11.35;;;1.50;99.90;;;;;;5082576;28;20208;-72
2021/12/21 11:55:13;;;;;;;15.93;11.57;;;1.50;99.90;;;;;;5086093;28;20214;-69
2021/12/21 11:57:44;;;;;;;16.13;11.73;;;1.60;99.90;;;;;;5102244;28;20208;-70
2021/12/21 12:00:15;;;;;;;22.63;11.60;;;1.60;99.90;;;;;;5101829;28;20461;-68
2021/12/21 12:02:46;;;;;;;17.55;12.30;;;1.70;99.90;;;;;;5100881;28;21216;-62
2021/12/21 12:05:19;;;;;;;18.10;12.93;;;1.70;99.90;;;;;;5090442;28;20254;-61
2021/12/21 12:07:58;;;;;;;15.73;12.00;;;1.70;99.90;;;;;;5099855;28;20290;-61
2021/12/21 12:10:26;;;;;;;16.25;12.52;;;1.80;99.90;;;;;;5098912;28;20187;-61
2021/12/21 12:12:56;;;;;;;17.15;11.75;;;1.80;99.90;;;;;;5096981;28;20299;-63
2021/12/21 12:15:23;;;;;;;17.42;11.63;;;1.90;99.90;;;;;;5098838;28;20219;-63
2021/12/21 12:17:52;;;;;;;19.00;12.10;;;1.90;99.90;;;;;;5102719;28;20196;-63
2021/12/21 12:20:27;;;;;;;16.92;11.90;;;1.90;99.90;;;;;;5100519;28;20337;-64
2021/12/21 12:23:05;;;;;;;16.33;12.65;;;2.00;99.90;;;;;;5099964;28;20217;-63
2021/12/21 12:25:33;;;;;;;20.20;12.32;;;2.00;99.90;;;;;;5099999;28;20310;-64
2021/12/21 12:28:02;;;;;;;20.85;12.38;;;2.00;99.90;;;;;;5100310;28;20203;-61
2021/12/21 12:30:30;;;;;;;19.55;13.70;;;2.00;99.90;;;;;;5099435;28;20214;-62
2021/12/21 12:33:01;;;;;;;16.42;12.02;;;2.10;99.90;;;;;;5107389;28;20215;-64
2021/12/21 12:35:32;;;;;;;19.23;13.23;;;2.10;99.90;;;;;;5099390;28;20231;-63
2021/12/21 12:38:02;;;;;;;17.60;12.45;;;2.10;99.90;;;;;;5100012;28;20283;-63
2021/12/21 12:40:34;;;;;;;16.85;11.55;;;2.20;99.90;;;;;;5100036;28;20199;-65
2021/12/21 12:43:08;;;;;;;17.50;11.20;;;2.20;99.90;;;;;;5107392;28;20219;-62
2021/12/21 12:45:38;;;;;;;20.33;11.45;;;2.20;99.90;;;;;;5098939;28;20302;-63
2021/12/21 12:48:18;;;;;;;17.40;11.82;;;2.20;99.90;;;;;;5089196;27;20227;-62
2021/12/21 12:50:47;;;;;;;15.32;11.45;;;2.30;99.90;;;;;;5097579;28;20286;-63
2021/12/21 12:53:15;;;;;;;14.18;10.55;;;2.30;99.90;;;;;;5099122;28;20216;-63
2021/12/21 12:55:48;;;;;;;15.98;10.85;;;2.30;99.90;;;;;;5100388;28;20475;-63
2021/12/21 12:58:47;;;;;;;13.50;10.75;;;2.30;99.90;;;;;;5096630;28;20188;-65
2021/12/21 13:01:20;;;;;;;18.27;8.80;;;2.30;99.90;;;;;;5096453;28;20230;-63
2021/12/21 13:03:50;;;;;;;13.15;9.73;;;2.30;99.90;;;;;;5099041;28;20209;-63
2021/12/21 13:06:21;;;;;;;13.27;9.00;;;2.30;99.90;;;;;;5099050;27;20281;-63
2021/12/21 13:08:49;;;;;;;17.60;10.48;;;2.30;99.90;;;;;;5084653;28;20201;-63
2021/12/21 13:11:20;;;;;;;14.85;9.60;;;2.40;99.90;;;;;;5098560;28;20452;-64
2021/12/21 13:13:50;;;;;;;16.27;9.27;;;2.40;99.90;;;;;;5098185;28;20218;-64
2021/12/21 13:16:20;;;;;;;9.98;7.00;;;2.40;99.90;;;;;;5098960;28;20319;-63
2021/12/21 13:18:49;;;;;;;11.32;6.45;;;2.40;99.90;;;;;;5109664;28;20289;-63
2021/12/21 13:21:20;;;;;;;9.23;6.45;;;2.50;99.90;;;;;;5099998;28;20573;-61
2021/12/21 13:23:49;;;;;;;6.95;5.70;;;2.40;99.90;;;;;;5099150;28;20572;-61
2021/12/21 13:26:22;;;;;;;10.20;5.85;;;2.50;99.90;;;;;;5099042;28;20227;-62
2021/12/21 13:28:53;;;;;;;9.05;6.30;;;2.40;99.90;;;;;;5098571;28;20195;-62
2021/12/21 13:31:23;;;;;;;7.25;5.22;;;2.50;99.90;;;;;;5098437;28;20631;-61